Time;durP1;ratioP1;P1;durP2;ratioP2;P2;SDS_P1;SDS_P2;PMS_P1;PMS_P2;Temp;Humidity;BMP_temperature;BMP_pressure;BME280_temperature;BME280_humidity;BME280_pressure;Samples;Min_cycle;Max_cycle;Signal;HPM_P1;HPM_P2
2022/11/21 00:01:27;;;;;;;19.87;3.63;;;7.10;99.90;;;;;;5073797;28;20175;-45
2022/11/21 00:03:53;;;;;;;10.20;2.83;;;7.10;99.90;;;;;;5073424;28;20244;-44
2022/11/21 00:06:19;;;;;;;15.93;3.43;;;7.10;99.90;;;;;;5073635;28;20192;-45
2022/11/21 00:08:45;;;;;;;14.20;3.00;;;7.10;99.90;;;;;;5073253;28;20209;-45
2022/11/21 00:11:11;;;;;;;17.33;3.97;;;7.00;99.90;;;;;;5073357;28;20541;-45
2022/11/21 00:13:37;;;;;;;13.33;3.43;;;7.00;99.90;;;;;;5073448;28;20544;-46
2022/11/21 00:16:11;;;;;;;16.57;3.20;;;7.00;99.90;;;;;;5073929;28;20611;-45
2022/11/21 00:18:37;;;;;;;12.50;3.43;;;7.00;99.90;;;;;;5073530;28;20565;-44
2022/11/21 00:21:09;;;;;;;10.53;2.13;;;7.00;99.90;;;;;;5073196;28;20186;-44
2022/11/21 00:23:34;;;;;;;16.00;3.10;;;6.90;99.90;;;;;;5073532;28;20178;-45
2022/11/21 00:26:07;;;;;;;14.77;3.53;;;6.90;99.90;;;;;;5072986;28;20186;-45
2022/11/21 00:28:33;;;;;;;16.83;3.60;;;6.80;99.90;;;;;;5073110;28;20207;-46
2022/11/21 00:30:59;;;;;;;15.30;3.60;;;6.80;99.90;;;;;;5073261;28;20197;-45
2022/11/21 00:33:24;;;;;;;13.23;3.57;;;6.70;99.90;;;;;;5073637;28;20611;-44
2022/11/21 00:35:50;;;;;;;11.43;3.17;;;6.70;99.90;;;;;;5073134;28;20174;-44
2022/11/21 00:38:16;;;;;;;12.13;2.97;;;6.60;99.90;;;;;;5073545;28;20196;-43
2022/11/21 00:40:43;;;;;;;12.23;4.30;;;6.60;99.90;;;;;;5073374;28;20176;-43
2022/11/21 00:43:08;;;;;;;9.17;3.00;;;6.60;99.90;;;;;;5055124;28;20198;-45
2022/11/21 00:45:34;;;;;;;13.27;3.87;;;6.50;99.90;;;;;;5072996;28;20183;-45
2022/11/21 00:47:59;;;;;;;15.03;3.57;;;6.50;99.90;;;;;;5072999;28;20265;-43
2022/11/21 00:50:25;;;;;;;11.80;3.70;;;6.50;99.90;;;;;;5072800;28;20194;-45
2022/11/21 00:52:57;;;;;;;11.90;2.97;;;6.50;99.90;;;;;;5073081;28;20698;-44
2022/11/21 00:55:24;;;;;;;17.43;3.33;;;6.40;99.90;;;;;;5072975;28;20183;-44
2022/11/21 00:57:50;;;;;;;17.87;3.53;;;6.40;99.90;;;;;;5072907;28;20195;-44
2022/11/21 01:00:17;;;;;;;13.67;3.33;;;6.40;99.90;;;;;;5072905;28;20221;-44
2022/11/21 01:02:42;;;;;;;9.47;2.83;;;6.40;99.90;;;;;;5073098;28;20183;-45
2022/11/21 01:05:08;;;;;;;16.40;3.20;;;6.40;99.90;;;;;;5072825;28;20703;-46
2022/11/21 01:07:34;;;;;;;7.40;3.30;;;6.40;99.90;;;;;;5072768;28;20186;-44
2022/11/21 01:10:00;;;;;;;13.07;3.23;;;6.40;99.90;;;;;;5055357;28;20224;-44
2022/11/21 01:12:26;;;;;;;14.83;3.40;;;6.40;99.90;;;;;;5072969;28;20179;-43
2022/11/21 01:14:51;;;;;;;9.37;2.73;;;6.40;99.90;;;;;;5072627;28;20676;-45
2022/11/21 01:17:17;;;;;;;13.87;3.57;;;6.40;99.90;;;;;;5072921;28;20168;-46
2022/11/21 01:19:43;;;;;;;13.47;3.43;;;6.40;99.90;;;;;;5054676;28;20200;-46
2022/11/21 01:22:08;;;;;;;15.47;3.70;;;6.40;99.90;;;;;;5072680;28;20228;-44
2022/11/21 01:24:34;;;;;;;14.60;3.57;;;6.40;99.90;;;;;;5072673;28;20205;-44
2022/11/21 01:26:59;;;;;;;12.13;2.83;;;6.40;99.90;;;;;;5072755;28;20657;-43
2022/11/21 01:29:26;;;;;;;13.37;3.80;;;6.40;99.90;;;;;;5072530;28;20615;-42
2022/11/21 01:31:52;;;;;;;12.13;3.17;;;6.40;99.90;;;;;;5072612;28;20210;-43
2022/11/21 01:34:17;;;;;;;9.53;2.90;;;6.40;99.90;;;;;;5072642;28;20620;-44
2022/11/21 01:36:43;;;;;;;9.53;2.83;;;6.30;99.90;;;;;;5073427;28;20173;-44
2022/11/21 01:39:10;;;;;;;10.83;2.80;;;6.30;99.90;;;;;;5076018;28;20199;-44
2022/11/21 01:41:41;;;;;;;9.20;2.67;;;6.30;99.90;;;;;;5076388;28;20229;-44
2022/11/21 01:44:23;;;;;;;8.17;3.30;;;6.30;99.90;;;;;;5076045;28;20170;-45
2022/11/21 01:46:50;;;;;;;10.27;2.57;;;6.30;99.90;;;;;;5075940;28;20217;-43
2022/11/21 01:49:20;;;;;;;11.63;3.07;;;6.30;99.90;;;;;;5075829;28;20206;-46
2022/11/21 01:52:03;;;;;;;12.10;2.90;;;6.20;99.90;;;;;;5076150;28;20168;-45
2022/11/21 01:54:43;;;;;;;8.97;2.23;;;6.20;99.90;;;;;;5076119;28;20300;-44
2022/11/21 01:57:11;;;;;;;9.13;2.87;;;6.20;99.90;;;;;;5076059;28;20265;-43
2022/11/21 01:59:42;;;;;;;11.43;2.93;;;6.20;99.90;;;;;;5075645;28;20202;-44
2022/11/21 02:02:10;;;;;;;14.00;3.07;;;6.20;99.90;;;;;;5076065;28;20172;-45
2022/11/21 02:04:38;;;;;;;13.43;3.10;;;6.30;99.90;;;;;;5075580;28;20239;-46
2022/11/21 02:07:05;;;;;;;13.03;2.80;;;6.30;99.90;;;;;;5075575;28;20516;-44
2022/11/21 02:09:33;;;;;;;7.80;2.77;;;6.30;99.90;;;;;;5075448;28;20211;-46
2022/11/21 02:12:08;;;;;;;9.37;2.97;;;6.30;99.90;;;;;;5075516;28;20186;-44
2022/11/21 02:14:36;;;;;;;8.87;2.47;;;6.30;99.90;;;;;;5075491;28;20274;-43
2022/11/21 02:17:06;;;;;;;9.90;3.00;;;6.30;99.90;;;;;;5075698;28;20186;-45
2022/11/21 02:19:52;;;;;;;10.93;2.57;;;6.30;99.90;;;;;;5075879;28;20215;-45
2022/11/21 02:22:33;;;;;;;12.53;3.03;;;6.30;99.90;;;;;;5075367;28;20171;-46
2022/11/21 02:25:08;;;;;;;9.83;2.63;;;6.30;99.90;;;;;;5075585;28;20255;-46
2022/11/21 02:27:34;;;;;;;10.20;2.93;;;6.20;99.90;;;;;;5075439;28;20258;-45
2022/11/21 02:30:03;;;;;;;13.60;2.87;;;6.10;99.90;;;;;;5075126;28;20555;-46
2022/11/21 02:32:40;;;;;;;12.30;2.87;;;6.10;99.90;;;;;;5075044;28;20223;-46
2022/11/21 02:35:07;;;;;;;8.63;2.97;;;6.10;99.90;;;;;;5075457;28;20527;-46
2022/11/21 02:37:35;;;;;;;12.50;2.83;;;6.00;99.90;;;;;;5057084;28;20190;-45
2022/11/21 02:40:05;;;;;;;6.60;2.47;;;6.00;99.90;;;;;;5074981;28;20614;-45
2022/11/21 02:42:36;;;;;;;7.13;2.70;;;5.90;99.90;;;;;;5075154;28;20186;-45
2022/11/21 02:45:19;;;;;;;7.90;2.73;;;5.90;99.90;;;;;;5075134;28;20180;-44
2022/11/21 02:47:49;;;;;;;11.07;2.47;;;5.90;99.90;;;;;;5075047;28;20294;-45
2022/11/21 02:50:21;;;;;;;8.03;2.80;;;5.90;99.90;;;;;;5075005;28;20705;-46
2022/11/21 02:52:47;;;;;;;11.23;2.33;;;5.80;99.90;;;;;;5075215;28;20166;-45
2022/11/21 02:55:14;;;;;;;9.37;2.60;;;5.80;99.90;;;;;;5075384;28;20197;-45
2022/11/21 02:57:40;;;;;;;8.83;2.80;;;5.80;99.90;;;;;;5075106;28;20180;-44
2022/11/21 03:00:06;;;;;;;7.20;2.77;;;5.80;99.90;;;;;;5074809;28;20579;-44
2022/11/21 03:02:32;;;;;;;10.73;2.13;;;5.80;99.90;;;;;;5074449;28;20179;-45
2022/11/21 03:04:57;;;;;;;13.17;2.30;;;5.80;99.90;;;;;;5074437;28;20207;-43
2022/11/21 03:07:23;;;;;;;7.80;2.53;;;5.80;99.90;;;;;;5074355;28;20189;-45
2022/11/21 03:09:48;;;;;;;5.30;2.40;;;5.80;99.90;;;;;;5074967;28;20243;-45
2022/11/21 03:12:14;;;;;;;10.40;2.50;;;5.80;99.90;;;;;;5075691;28;20182;-44
2022/11/21 03:14:39;;;;;;;13.73;2.30;;;5.80;99.90;;;;;;5074874;28;20197;-45
2022/11/21 03:17:05;;;;;;;8.03;1.80;;;5.80;99.90;;;;;;5074408;28;20224;-45
2022/11/21 03:19:31;;;;;;;5.60;1.90;;;5.80;99.90;;;;;;5074642;28;20198;-44
2022/11/21 03:21:56;;;;;;;4.13;2.07;;;5.90;99.90;;;;;;5074301;28;20178;-45
2022/11/21 03:24:22;;;;;;;4.63;1.67;;;5.90;99.90;;;;;;5074054;28;20194;-45
2022/11/21 03:26:47;;;;;;;11.10;2.13;;;5.90;99.90;;;;;;5074278;28;20189;-45
2022/11/21 03:29:13;;;;;;;6.73;2.17;;;5.90;99.90;;;;;;5074155;28;20708;-45
2022/11/21 03:31:38;;;;;;;7.07;2.30;;;5.90;99.90;;;;;;5074070;28;20175;-44
2022/11/21 03:34:04;;;;;;;8.20;2.93;;;5.90;99.90;;;;;;5074203;28;20253;-44
2022/11/21 03:36:30;;;;;;;10.83;2.93;;;5.90;99.90;;;;;;5074056;28;20182;-44
2022/11/21 03:38:56;;;;;;;7.73;2.77;;;6.00;99.90;;;;;;5073931;28;20202;-45
2022/11/21 03:41:29;;;;;;;7.07;3.00;;;5.90;99.90;;;;;;5074279;28;20256;-44
2022/11/21 03:44:06;;;;;;;7.27;2.83;;;5.90;99.90;;;;;;5073970;28;20160;-45
2022/11/21 03:46:33;;;;;;;9.53;3.67;;;5.90;99.90;;;;;;5074181;28;20173;-44
2022/11/21 03:48:59;;;;;;;12.73;3.67;;;5.90;99.90;;;;;;5073812;28;20196;-43
2022/11/21 03:51:25;;;;;;;10.73;3.40;;;5.90;99.90;;;;;;5073694;28;20179;-44
2022/11/21 03:53:51;;;;;;;13.17;3.27;;;5.90;99.90;;;;;;5073783;28;20176;-43
2022/11/21 03:56:17;;;;;;;10.93;3.70;;;5.90;99.90;;;;;;5073901;28;20175;-44
2022/11/21 03:58:42;;;;;;;8.87;3.53;;;5.90;99.90;;;;;;5073545;28;20191;-44
2022/11/21 04:01:08;;;;;;;7.47;3.40;;;5.90;99.90;;;;;;5073938;28;20177;-44
2022/11/21 04:03:34;;;;;;;10.97;4.23;;;5.90;99.90;;;;;;5073748;28;20179;-45
2022/11/21 04:06:00;;;;;;;12.53;3.73;;;5.90;99.90;;;;;;5073886;28;20182;-46
2022/11/21 04:08:26;;;;;;;10.37;3.73;;;5.90;99.90;;;;;;5073753;28;20211;-45
2022/11/21 04:10:53;;;;;;;9.80;4.00;;;5.90;99.90;;;;;;5073753;28;20210;-45
2022/11/21 04:13:19;;;;;;;12.50;3.90;;;5.90;99.90;;;;;;5073834;28;20243;-45
2022/11/21 04:15:45;;;;;;;10.80;3.17;;;5.90;99.90;;;;;;5073760;28;20190;-45
2022/11/21 04:18:11;;;;;;;6.30;3.47;;;5.90;99.90;;;;;;5073313;28;20194;-44
2022/11/21 04:20:38;;;;;;;8.97;3.50;;;5.90;99.90;;;;;;5073488;28;20177;-45
2022/11/21 04:23:04;;;;;;;8.80;3.10;;;5.90;99.90;;;;;;5073902;28;20537;-46
2022/11/21 04:25:29;;;;;;;11.10;3.53;;;5.90;99.90;;;;;;5073859;28;20295;-45
2022/11/21 04:27:56;;;;;;;11.10;4.13;;;5.90;99.90;;;;;;5073285;28;20206;-45
2022/11/21 04:30:22;;;;;;;10.40;4.00;;;5.90;99.90;;;;;;5073088;28;20243;-45
2022/11/21 04:32:50;;;;;;;8.20;3.63;;;5.90;99.90;;;;;;5073593;28;20535;-43
2022/11/21 04:35:16;;;;;;;9.03;3.10;;;5.90;99.90;;;;;;5073538;28;20268;-43
2022/11/21 04:37:41;;;;;;;8.97;3.50;;;5.90;99.90;;;;;;5073322;28;20328;-44
2022/11/21 04:40:07;;;;;;;9.33;4.07;;;5.90;99.90;;;;;;5073516;28;20183;-43
2022/11/21 04:42:33;;;;;;;10.10;3.80;;;5.90;99.90;;;;;;5073181;28;20239;-45
2022/11/21 04:44:58;;;;;;;10.10;3.67;;;6.00;99.90;;;;;;5073257;28;20547;-45
2022/11/21 04:47:24;;;;;;;12.03;4.33;;;5.90;99.90;;;;;;5073196;28;20179;-46
2022/11/21 04:49:50;;;;;;;10.90;4.20;;;6.00;99.90;;;;;;5073230;28;20212;-43
2022/11/21 04:52:15;;;;;;;12.00;4.50;;;6.00;99.90;;;;;;5073111;28;20663;-44
2022/11/21 04:54:41;;;;;;;7.87;4.03;;;6.00;99.90;;;;;;5073246;28;20180;-45
2022/11/21 04:57:06;;;;;;;8.57;4.43;;;6.00;99.90;;;;;;5073470;28;20255;-45
2022/11/21 04:59:32;;;;;;;11.17;4.93;;;6.00;99.90;;;;;;5073180;28;20284;-45
2022/11/21 05:01:57;;;;;;;16.27;5.27;;;6.00;99.90;;;;;;5073238;28;20184;-45
2022/11/21 05:04:23;;;;;;;10.13;4.83;;;6.00;99.90;;;;;;5073196;28;20221;-46
2022/11/21 05:06:48;;;;;;;8.97;4.57;;;6.10;99.90;;;;;;5073541;28;20181;-46
2022/11/21 05:09:14;;;;;;;9.33;4.87;;;6.00;99.90;;;;;;5073057;28;20634;-41
2022/11/21 05:14:25;;;;;;;14.87;5.07;;;6.00;99.90;;;;;;5076935;28;20260;-46
2022/11/21 05:16:52;;;;;;;12.30;5.03;;;6.10;99.90;;;;;;5090072;22;20628;-48
2022/11/21 05:19:17;;;;;;;11.37;4.77;;;6.10;99.90;;;;;;5058793;28;20256;-48
2022/11/21 05:21:43;;;;;;;11.47;4.60;;;6.10;99.90;;;;;;5058840;28;20187;-49
2022/11/21 05:24:09;;;;;;;10.07;5.27;;;6.10;99.90;;;;;;5076749;28;20185;-49
2022/11/21 05:26:35;;;;;;;11.37;4.57;;;6.10;99.90;;;;;;5059121;28;20184;-48
2022/11/21 05:29:00;;;;;;;8.43;4.73;;;6.10;99.90;;;;;;5076360;28;20249;-49
2022/11/21 05:31:26;;;;;;;7.80;4.57;;;6.10;99.90;;;;;;5058691;28;20517;-50
2022/11/21 05:33:51;;;;;;;9.70;5.00;;;6.10;99.90;;;;;;5058671;28;20203;-49
2022/11/21 05:36:17;;;;;;;7.57;4.70;;;6.00;99.90;;;;;;5076616;28;20638;-49
2022/11/21 05:38:43;;;;;;;9.07;5.13;;;6.00;99.90;;;;;;5058359;28;20246;-48
2022/11/21 05:41:08;;;;;;;11.93;4.77;;;6.00;99.90;;;;;;5076305;28;20182;-47
2022/11/21 05:43:46;;;;;;;11.97;5.13;;;6.00;99.90;;;;;;5058288;28;20193;-48
2022/11/21 05:46:16;;;;;;;10.57;4.33;;;6.00;99.90;;;;;;5076372;28;20588;-49
2022/11/21 05:48:42;;;;;;;10.30;4.20;;;6.00;99.90;;;;;;5076607;28;20199;-46
2022/11/21 05:51:08;;;;;;;10.97;4.13;;;6.00;99.90;;;;;;5076177;28;20201;-46
2022/11/21 05:53:34;;;;;;;9.43;4.63;;;6.00;99.90;;;;;;5075957;28;20186;-42
2022/11/21 05:56:04;;;;;;;8.03;4.27;;;6.00;99.90;;;;;;5076184;28;20208;-45
2022/11/21 05:58:30;;;;;;;9.97;4.40;;;6.00;99.90;;;;;;5075728;28;20677;-44
2022/11/21 06:00:57;;;;;;;8.70;4.40;;;5.90;99.90;;;;;;5075820;28;20261;-47
2022/11/21 06:03:26;;;;;;;12.63;4.27;;;5.90;99.90;;;;;;5075790;28;20208;-44
2022/11/21 06:05:57;;;;;;;10.60;4.30;;;5.90;99.90;;;;;;5075810;28;20181;-43
2022/11/21 06:08:22;;;;;;;7.53;4.33;;;5.90;99.90;;;;;;5075960;28;20233;-45
2022/11/21 06:10:48;;;;;;;11.03;4.40;;;5.90;99.90;;;;;;5075864;28;20211;-42
2022/11/21 06:13:23;;;;;;;7.53;4.13;;;5.90;99.90;;;;;;5075862;28;20562;-43
2022/11/21 06:16:04;;;;;;;12.60;4.13;;;5.90;99.90;;;;;;5076297;28;20166;-45
2022/11/21 06:18:35;;;;;;;10.97;4.00;;;5.90;99.90;;;;;;5075785;28;20233;-43
2022/11/21 06:21:07;;;;;;;10.67;4.60;;;5.90;99.90;;;;;;5075796;28;20171;-43
2022/11/21 06:23:33;;;;;;;10.10;4.10;;;5.90;99.90;;;;;;5074903;28;20195;-43
2022/11/21 06:26:00;;;;;;;10.33;4.13;;;5.90;99.90;;;;;;5075509;28;20175;-44
2022/11/21 06:28:32;;;;;;;6.27;3.80;;;5.90;99.90;;;;;;5075196;28;20678;-44
2022/11/21 06:31:05;;;;;;;7.20;4.63;;;6.00;99.90;;;;;;5057288;28;20567;-44
2022/11/21 06:33:32;;;;;;;7.63;4.37;;;5.90;99.90;;;;;;5075496;28;20162;-42
2022/11/21 06:36:00;;;;;;;6.53;3.63;;;6.00;99.90;;;;;;5075162;28;20178;-44
2022/11/21 06:38:26;;;;;;;9.93;4.43;;;6.00;99.90;;;;;;5075325;28;20203;-45
2022/11/21 06:40:52;;;;;;;11.80;5.13;;;6.00;99.90;;;;;;5075074;28;20225;-44
2022/11/21 06:43:17;;;;;;;8.03;4.73;;;6.00;99.90;;;;;;5074979;28;20540;-43
2022/11/21 06:45:43;;;;;;;10.40;4.47;;;6.00;99.90;;;;;;5075064;28;20182;-44
2022/11/21 06:48:08;;;;;;;12.20;5.27;;;6.00;99.90;;;;;;5074841;28;20226;-45
2022/11/21 06:50:34;;;;;;;13.13;5.33;;;6.00;99.90;;;;;;5074995;28;20572;-43
2022/11/21 06:53:00;;;;;;;8.77;4.20;;;6.00;99.90;;;;;;5074891;28;20538;-44
2022/11/21 06:55:27;;;;;;;11.93;4.30;;;6.00;99.90;;;;;;5074729;28;20186;-44
2022/11/21 06:58:22;;;;;;;8.77;4.30;;;6.00;99.90;;;;;;5074954;28;20274;-42
2022/11/21 07:00:47;;;;;;;7.23;4.23;;;6.00;99.90;;;;;;5057864;28;20183;-44
2022/11/21 07:03:13;;;;;;;9.47;4.57;;;5.90;99.90;;;;;;5074686;28;20646;-43
2022/11/21 07:05:38;;;;;;;10.33;5.27;;;5.90;99.90;;;;;;5074762;28;20224;-47
2022/11/21 07:08:04;;;;;;;7.70;4.90;;;5.90;99.90;;;;;;5074988;28;20250;-43
2022/11/21 07:10:30;;;;;;;7.53;4.63;;;5.90;99.90;;;;;;5075151;28;20209;-43
2022/11/21 07:15:41;;;;;;;8.37;5.20;;;5.90;99.90;;;;;;5074776;28;20169;-45
2022/11/21 07:18:07;;;;;;;9.80;5.33;;;5.90;99.90;;;;;;5074146;28;20217;-44
2022/11/21 07:20:33;;;;;;;10.60;5.33;;;5.90;99.90;;;;;;5074594;28;20181;-46
2022/11/21 07:22:59;;;;;;;10.83;5.87;;;5.80;99.90;;;;;;5074384;28;20177;-43
2022/11/21 07:25:24;;;;;;;9.73;5.73;;;5.90;99.90;;;;;;5074461;28;20179;-45
2022/11/21 07:27:50;;;;;;;10.60;5.80;;;5.90;99.90;;;;;;5074227;28;20210;-44
2022/11/21 07:30:15;;;;;;;9.27;5.47;;;5.90;99.90;;;;;;5074336;28;20205;-45
2022/11/21 07:32:41;;;;;;;8.33;5.73;;;5.80;99.90;;;;;;5074015;28;20179;-43
2022/11/21 07:35:07;;;;;;;11.73;6.17;;;5.90;99.90;;;;;;5073823;28;20177;-44
2022/11/21 07:37:37;;;;;;;13.13;6.03;;;5.90;99.90;;;;;;5074003;28;20171;-45
2022/11/21 07:40:03;;;;;;;16.03;6.63;;;5.90;99.90;;;;;;5074693;28;20715;-45
2022/11/21 07:42:30;;;;;;;16.33;7.17;;;5.90;99.90;;;;;;5074778;28;20174;-46
2022/11/21 07:44:56;;;;;;;14.87;7.33;;;5.90;99.90;;;;;;5074236;28;20182;-44
2022/11/21 07:47:21;;;;;;;13.97;7.53;;;5.90;99.90;;;;;;5074121;28;20309;-44
2022/11/21 07:49:47;;;;;;;15.70;7.43;;;6.00;99.90;;;;;;5074264;28;20216;-43
2022/11/21 07:52:12;;;;;;;15.03;7.20;;;6.00;99.90;;;;;;5074107;28;20183;-43
2022/11/21 07:54:38;;;;;;;19.87;8.53;;;6.00;99.90;;;;;;5073968;28;20188;-44
2022/11/21 07:57:03;;;;;;;15.77;7.83;;;6.00;99.90;;;;;;5073639;28;20175;-43
2022/11/21 07:59:29;;;;;;;17.67;7.27;;;6.00;99.90;;;;;;5073572;28;20205;-42
2022/11/21 08:01:54;;;;;;;14.00;7.53;;;6.00;99.90;;;;;;5073595;28;20178;-44
2022/11/21 08:04:20;;;;;;;11.93;6.80;;;6.10;99.90;;;;;;5073457;28;20178;-43
2022/11/21 08:06:46;;;;;;;17.37;7.67;;;6.10;99.90;;;;;;5073566;28;20227;-44
2022/11/21 08:09:11;;;;;;;15.30;6.77;;;6.10;99.90;;;;;;5073300;28;20201;-44
2022/11/21 08:11:37;;;;;;;15.00;6.63;;;6.10;99.90;;;;;;5073742;28;20590;-44
2022/11/21 08:14:02;;;;;;;12.97;6.20;;;6.10;99.90;;;;;;5073456;28;20517;-44
2022/11/21 08:16:31;;;;;;;18.10;7.23;;;6.10;99.90;;;;;;5073478;28;20197;-46
2022/11/21 08:18:58;;;;;;;17.40;7.07;;;6.10;99.90;;;;;;5074160;28;20543;-45
2022/11/21 08:21:23;;;;;;;10.93;6.27;;;6.20;99.90;;;;;;5073701;28;20220;-45
2022/11/21 08:23:49;;;;;;;13.27;6.93;;;6.20;99.90;;;;;;5073614;28;20178;-43
2022/11/21 08:26:15;;;;;;;13.57;7.00;;;6.20;99.90;;;;;;5073308;28;20650;-41
2022/11/21 08:28:41;;;;;;;14.47;6.63;;;6.30;99.90;;;;;;5073258;28;20200;-44
2022/11/21 08:31:07;;;;;;;15.20;6.73;;;6.30;99.90;;;;;;5073124;28;20673;-43
2022/11/21 08:33:33;;;;;;;14.17;6.87;;;6.30;99.90;;;;;;5073181;28;20178;-45
2022/11/21 08:36:02;;;;;;;15.10;6.47;;;6.30;99.90;;;;;;5073480;28;20180;-44
2022/11/21 08:38:28;;;;;;;12.27;6.80;;;6.30;99.90;;;;;;5073381;28;20206;-42
2022/11/21 08:42:01;;;;;;;16.37;6.77;;;6.30;99.90;;;;;;5073182;28;20185;-46
2022/11/21 08:43:39;;;;;;;11.57;5.87;;;6.30;99.90;;;;;;5072946;28;20718;-44
2022/11/21 08:46:04;;;;;;;11.70;6.17;;;6.30;99.90;;;;;;5057169;28;20213;-45
2022/11/21 08:48:30;;;;;;;15.10;6.83;;;6.30;99.90;;;;;;5077482;28;20202;-44
2022/11/21 08:50:56;;;;;;;14.53;6.47;;;6.30;99.90;;;;;;5077055;28;20202;-44
2022/11/21 08:53:22;;;;;;;13.73;5.93;;;6.30;99.90;;;;;;5077126;28;20180;-43
2022/11/21 08:55:47;;;;;;;11.83;6.40;;;6.30;99.90;;;;;;5077060;28;20170;-44
2022/11/21 08:58:13;;;;;;;13.93;6.23;;;6.30;99.90;;;;;;5077040;28;20616;-43
2022/11/21 09:00:38;;;;;;;13.10;5.57;;;6.30;99.90;;;;;;5077306;28;20178;-45
2022/11/21 09:03:04;;;;;;;14.13;5.80;;;6.30;99.90;;;;;;5077550;28;20186;-44
2022/11/21 09:05:31;;;;;;;14.63;5.17;;;6.40;99.90;;;;;;5076917;28;20206;-43
2022/11/21 09:07:56;;;;;;;14.60;5.40;;;6.50;99.90;;;;;;5077361;28;20722;-45
2022/11/21 09:10:23;;;;;;;14.10;5.20;;;6.50;99.90;;;;;;5076711;28;20202;-43
2022/11/21 09:12:49;;;;;;;9.03;5.13;;;6.60;99.90;;;;;;5059080;28;20164;-46
2022/11/21 09:18:03;;;;;;;17.57;4.97;;;6.80;99.90;;;;;;5076837;28;20225;-43
2022/11/21 09:20:30;;;;;;;12.60;4.60;;;6.90;99.90;;;;;;5077397;28;20187;-44
2022/11/21 09:22:56;;;;;;;10.00;3.97;;;7.00;99.90;;;;;;5058938;28;20182;-43
2022/11/21 09:25:22;;;;;;;10.83;4.00;;;7.20;99.90;;;;;;5076767;28;20186;-43
2022/11/21 09:27:47;;;;;;;10.13;3.60;;;7.30;99.90;;;;;;5076598;28;20206;-45
2022/11/21 09:30:13;;;;;;;15.37;4.43;;;7.40;99.90;;;;;;5076370;28;20648;-43
2022/11/21 09:32:39;;;;;;;9.13;3.63;;;7.40;99.90;;;;;;5076853;28;20177;-44
2022/11/21 09:35:05;;;;;;;9.63;4.37;;;7.50;99.90;;;;;;5076393;28;20605;-45
2022/11/21 09:37:36;;;;;;;9.93;4.07;;;7.50;99.90;;;;;;5058417;28;20561;-46
2022/11/21 09:40:03;;;;;;;11.23;3.87;;;7.60;99.90;;;;;;5076719;28;20529;-42
2022/11/21 09:42:55;;;;;;;10.13;3.87;;;7.70;99.90;;;;;;5076222;28;20671;-45
2022/11/21 09:45:28;;;;;;;8.80;3.87;;;7.70;99.90;;;;;;5076463;28;20240;-45
2022/11/21 09:47:54;;;;;;;10.33;3.17;;;7.70;99.90;;;;;;5076544;28;20204;-45
2022/11/21 09:50:38;;;;;;;7.23;3.70;;;7.60;99.90;;;;;;5075976;28;20199;-43
2022/11/21 09:53:15;;;;;;;7.97;3.57;;;7.60;99.90;;;;;;5076242;28;20164;-44
2022/11/21 09:56:06;;;;;;;9.77;3.13;;;7.60;99.90;;;;;;5076518;28;20162;-45
2022/11/21 09:58:35;;;;;;;9.53;3.63;;;7.50;99.90;;;;;;5075432;28;20199;-46
2022/11/21 10:01:01;;;;;;;6.27;3.23;;;7.60;99.90;;;;;;5076910;28;20179;-43
2022/11/21 10:03:31;;;;;;;8.97;3.30;;;7.60;99.90;;;;;;5077001;28;20183;-44
2022/11/21 10:05:59;;;;;;;8.60;2.73;;;7.70;99.90;;;;;;5076272;28;20176;-44
2022/11/21 10:08:36;;;;;;;6.83;2.60;;;7.80;99.90;;;;;;5076317;28;20232;-44
2022/11/21 10:11:28;;;;;;;8.53;3.10;;;7.90;99.90;;;;;;5075991;28;20199;-45
2022/11/21 10:14:08;;;;;;;7.03;2.50;;;8.00;99.90;;;;;;5075612;28;20169;-44
2022/11/21 10:17:15;;;;;;;6.53;2.80;;;8.10;99.90;;;;;;5075745;28;20183;-43
2022/11/21 10:20:03;;;;;;;6.03;2.53;;;8.10;99.90;;;;;;5057043;28;20252;-44
2022/11/21 10:22:56;;;;;;;6.47;2.53;;;8.20;99.90;;;;;;5057573;28;20254;-44
2022/11/21 10:25:30;;;;;;;7.30;2.23;;;8.20;99.90;;;;;;5075452;28;20171;-45
2022/11/21 10:28:06;;;;;;;4.97;2.13;;;8.30;99.90;;;;;;5075414;28;20195;-43
2022/11/21 10:30:33;;;;;;;6.23;2.70;;;8.20;99.90;;;;;;5075670;28;20195;-43
2022/11/21 10:33:03;;;;;;;3.97;2.00;;;8.30;99.90;;;;;;5057305;28;20172;-43
2022/11/21 10:35:41;;;;;;;6.20;1.93;;;8.30;99.90;;;;;;5075293;28;20158;-44
2022/11/21 10:38:25;;;;;;;5.53;2.17;;;8.40;99.90;;;;;;5057520;28;20672;-44
2022/11/21 10:41:14;;;;;;;5.73;2.30;;;8.50;99.90;;;;;;5075055;28;20186;-42
2022/11/21 10:46:24;;;;;;;5.50;2.23;;;8.60;99.90;;;;;;5075114;28;20256;-44
2022/11/21 10:49:00;;;;;;;4.87;2.30;;;8.60;99.90;;;;;;5074967;28;20232;-43
2022/11/21 10:51:49;;;;;;;5.97;2.10;;;8.60;99.90;;;;;;5056959;28;20207;-44
2022/11/21 10:54:35;;;;;;;8.40;2.27;;;8.70;99.90;;;;;;5056903;28;20183;-45
2022/11/21 10:57:17;;;;;;;4.50;1.70;;;8.70;99.90;;;;;;5074788;28;20198;-44
2022/11/21 11:00:12;;;;;;;5.80;1.80;;;8.70;99.90;;;;;;5056758;28;20237;-44
2022/11/21 11:02:39;;;;;;;5.73;1.70;;;8.80;99.90;;;;;;5025826;28;20173;-46
2022/11/21 11:05:19;;;;;;;5.50;1.60;;;8.80;99.90;;;;;;5056994;28;20224;-46
2022/11/21 11:08:13;;;;;;;7.03;1.93;;;8.90;99.90;;;;;;5074513;28;20201;-46
2022/11/21 11:11:02;;;;;;;3.90;1.50;;;8.90;99.90;;;;;;5055539;28;20209;-44
2022/11/21 11:13:56;;;;;;;6.37;1.50;;;9.00;99.90;;;;;;5070500;28;20192;-43
2022/11/21 11:16:30;;;;;;;8.70;1.43;;;9.10;99.90;;;;;;5074034;28;20205;-46
2022/11/21 11:19:07;;;;;;;6.70;1.97;;;9.20;99.90;;;;;;5056420;28;20206;-43
2022/11/21 11:21:39;;;;;;;4.63;1.43;;;9.20;99.90;;;;;;5074399;28;20181;-45
2022/11/21 11:24:10;;;;;;;4.90;1.43;;;9.20;99.90;;;;;;5074605;28;20189;-45
2022/11/21 11:26:51;;;;;;;4.07;1.07;;;9.20;99.90;;;;;;5074954;28;20181;-44
2022/11/21 11:29:22;;;;;;;6.63;1.33;;;9.20;99.90;;;;;;5074217;28;20535;-45
2022/11/21 11:32:16;;;;;;;4.40;1.40;;;9.20;99.90;;;;;;5075164;28;20525;-45
2022/11/21 11:34:58;;;;;;;1.20;1.10;;;9.30;99.90;;;;;;5074368;28;20170;-46
2022/11/21 11:37:37;;;;;;;2.87;1.27;;;9.40;99.90;;;;;;5074336;28;20213;-44
2022/11/21 11:40:31;;;;;;;3.77;1.30;;;9.30;99.90;;;;;;5073929;28;20174;-45
2022/11/21 11:49:20;;;;;;;4.10;1.10;;;9.40;99.90;;;;;;5074155;28;20210;-42
2022/11/21 11:51:55;;;;;;;4.87;1.30;;;9.40;99.90;;;;;;5074032;28;20156;-40
2022/11/21 11:54:28;;;;;;;5.83;1.37;;;9.50;99.90;;;;;;5074049;28;20234;-41
2022/11/21 11:56:54;;;;;;;4.87;1.17;;;9.60;99.90;;;;;;5073691;28;20162;-42
2022/11/21 11:59:32;;;;;;;4.83;1.07;;;9.60;99.90;;;;;;5073643;28;20188;-41
2022/11/21 12:02:18;;;;;;;5.17;1.03;;;9.60;99.90;;;;;;5073985;28;20167;-43
2022/11/21 12:05:01;;;;;;;1.27;0.73;;;9.60;99.90;;;;;;5074010;28;20160;-42
2022/11/21 12:07:40;;;;;;;4.37;1.07;;;9.70;99.90;;;;;;5073724;28;20574;-43
2022/11/21 12:10:28;;;;;;;4.80;1.33;;;9.60;99.90;;;;;;5055607;28;20195;-43
2022/11/21 12:13:08;;;;;;;2.97;0.73;;;9.60;99.90;;;;;;5073607;28;20210;-41
2022/11/21 12:15:49;;;;;;;6.60;1.17;;;9.60;99.90;;;;;;5073773;28;20172;-42
2022/11/21 12:18:21;;;;;;;1.33;0.80;;;9.60;99.90;;;;;;5073637;28;20195;-40
2022/11/21 12:21:11;;;;;;;4.10;0.80;;;9.60;99.90;;;;;;5073377;28;20160;-40
2022/11/21 12:23:49;;;;;;;2.23;1.00;;;9.60;99.90;;;;;;5073416;28;20180;-41
2022/11/21 12:26:24;;;;;;;4.50;0.90;;;9.60;99.90;;;;;;5073616;28;20202;-45
2022/11/21 12:28:49;;;;;;;4.53;1.23;;;9.60;99.90;;;;;;5073415;28;20222;-42
2022/11/21 12:31:22;;;;;;;6.00;1.00;;;9.60;99.90;;;;;;5073386;28;20313;-40
2022/11/21 12:34:16;;;;;;;1.90;0.83;;;9.70;99.90;;;;;;5073517;28;20186;-44
2022/11/21 12:37:08;;;;;;;2.07;0.70;;;9.70;99.90;;;;;;5038854;28;20675;-43
2022/11/21 12:39:45;;;;;;;3.43;1.00;;;9.70;99.90;;;;;;5073410;28;20290;-44
2022/11/21 12:42:50;;;;;;;2.90;0.97;;;9.80;99.90;;;;;;5073264;28;20511;-43
2022/11/21 12:45:28;;;;;;;2.17;0.90;;;9.80;99.90;;;;;;5073145;28;20685;-43
2022/11/21 12:54:30;;;;;;;2.30;1.10;;;10.00;99.90;;;;;;5073400;28;20297;-41
2022/11/21 12:57:18;;;;;;;1.67;0.60;;;10.00;99.90;;;;;;5073268;28;20160;-42
2022/11/21 13:00:04;;;;;;;1.90;0.60;;;10.00;99.90;;;;;;5054869;28;20678;-44
2022/11/21 13:02:49;;;;;;;1.87;0.80;;;10.00;99.90;;;;;;5072896;28;20191;-42
2022/11/21 13:05:23;;;;;;;1.60;0.73;;;10.00;99.90;;;;;;5073196;28;20163;-44
2022/11/21 13:07:54;;;;;;;3.40;0.80;;;10.00;99.90;;;;;;5072956;28;20284;-43
2022/11/21 13:10:20;;;;;;;2.60;0.73;;;10.10;99.90;;;;;;5072917;28;20202;-44
2022/11/21 13:13:21;;;;;;;2.17;1.10;;;10.10;99.90;;;;;;5073115;28;20184;-44
2022/11/21 13:16:05;;;;;;;3.43;1.50;;;10.00;99.90;;;;;;5073243;28;20266;-44
2022/11/21 13:18:40;;;;;;;4.67;1.60;;;9.90;99.90;;;;;;5073199;28;20203;-42
2022/11/21 13:21:38;;;;;;;4.97;1.77;;;9.90;99.90;;;;;;5072947;28;20254;-42
2022/11/21 13:24:04;;;;;;;5.73;2.07;;;9.90;99.90;;;;;;5072834;28;20615;-44
2022/11/21 13:26:46;;;;;;;3.43;1.50;;;9.90;99.90;;;;;;5073119;28;20222;-43
2022/11/21 13:29:13;;;;;;;5.43;1.80;;;9.90;99.90;;;;;;5072955;28;20293;-47
2022/11/21 13:31:39;;;;;;;3.10;1.77;;;9.90;99.90;;;;;;5075750;28;20182;-48
2022/11/21 13:34:33;;;;;;;3.43;1.50;;;9.90;99.90;;;;;;5077954;28;20176;-48